Airport View

Enter AWOS ICAO identifier for current METAR.

ex. KFNL

KECP 191753Z 34013G17KT 10SM SCT030 14/08 A3017 RMK AO2 SLP227 60000 T01390078 10183 20117 58001

19 Jan 2020 18:36

Frequency: 119.975

Phone: 850-235-7857

Other Area AWOS: KPAM - K54J - K1J0 - KDTS

TAF KECP 191721Z 1918/2018 33015G23KT P6SM SCT150 FM200000 35007KT P6SM SKC